createdAt,value
2022-08-30T00:01:38.790Z,19.46
2022-08-30T00:04:11.499Z,19.46
2022-08-30T00:06:44.049Z,19.46
2022-08-30T00:09:16.566Z,19.46
2022-08-30T00:11:52.338Z,19.46
2022-08-30T00:14:27.659Z,19.46
2022-08-30T00:17:00.321Z,19.47
2022-08-30T00:19:32.860Z,19.48
2022-08-30T00:22:07.311Z,19.46
2022-08-30T00:24:40.089Z,19.47
2022-08-30T00:27:14.343Z,19.47
2022-08-30T00:29:47.121Z,19.46
2022-08-30T00:32:21.602Z,19.44
2022-08-30T00:34:54.975Z,19.42
2022-08-30T00:37:27.488Z,19.39
2022-08-30T00:40:00.251Z,19.37
2022-08-30T00:42:34.249Z,19.30
2022-08-30T00:45:12.774Z,19.34
2022-08-30T00:47:45.372Z,19.33
2022-08-30T00:50:20.604Z,19.32
2022-08-30T00:52:56.371Z,19.32
2022-08-30T00:55:29.959Z,19.31
2022-08-30T00:58:07.381Z,19.31
2022-08-30T01:00:40.463Z,19.29
2022-08-30T01:03:13.308Z,19.28
2022-08-30T01:05:48.545Z,19.27
2022-08-30T01:08:22.667Z,19.29
2022-08-30T01:10:57.469Z,19.30
2022-08-30T01:13:32.879Z,19.29
2022-08-30T01:16:06.238Z,19.29
2022-08-30T01:18:39.844Z,19.28
2022-08-30T01:21:17.874Z,19.28
2022-08-30T01:23:56.212Z,19.26
2022-08-30T01:26:30.852Z,19.24
2022-08-30T01:29:09.551Z,19.24
2022-08-30T01:31:42.076Z,19.22
2022-08-30T01:34:14.669Z,19.22
2022-08-30T01:36:47.622Z,19.22
2022-08-30T01:39:21.987Z,19.21
2022-08-30T01:41:54.573Z,19.18
2022-08-30T01:44:27.250Z,19.18
2022-08-30T01:46:59.874Z,19.15
2022-08-30T01:49:32.458Z,19.12
2022-08-30T01:52:06.260Z,19.13
2022-08-30T01:54:42.220Z,19.09
2022-08-30T01:57:21.049Z,19.11
2022-08-30T01:59:54.672Z,19.07
2022-08-30T02:02:29.592Z,19.09
2022-08-30T02:05:03.017Z,19.09
2022-08-30T02:07:35.852Z,19.08
2022-08-30T02:10:10.775Z,19.06
2022-08-30T02:12:43.288Z,19.07
2022-08-30T02:15:16.498Z,19.06
2022-08-30T02:17:49.237Z,19.07
2022-08-30T02:20:21.966Z,19.07
2022-08-30T02:22:55.929Z,19.06
2022-08-30T02:25:31.676Z,19.06
2022-08-30T02:28:06.072Z,19.06
2022-08-30T02:30:39.088Z,19.06
2022-08-30T02:33:11.770Z,19.04
2022-08-30T02:35:44.393Z,19.07
2022-08-30T02:38:20.106Z,19.07
2022-08-30T02:40:54.309Z,19.07
2022-08-30T02:43:27.048Z,19.06
2022-08-30T02:45:59.599Z,19.06
2022-08-30T02:48:32.580Z,19.04
2022-08-30T02:51:11.447Z,19.07
2022-08-30T02:53:45.049Z,19.08
2022-08-30T02:56:19.170Z,19.08
2022-08-30T02:58:51.904Z,19.08
2022-08-30T03:01:28.728Z,19.09
2022-08-30T03:04:02.115Z,19.11
2022-08-30T03:06:34.703Z,19.11
2022-08-30T03:09:07.544Z,19.12
2022-08-30T03:11:42.821Z,19.12
2022-08-30T03:14:15.363Z,19.11
2022-08-30T03:16:47.960Z,19.13
2022-08-30T03:19:21.194Z,19.15
2022-08-30T03:21:54.133Z,19.17
2022-08-30T03:24:26.707Z,19.18
2022-08-30T03:27:00.937Z,19.20
2022-08-30T03:29:33.860Z,19.21
2022-08-30T03:32:06.401Z,19.24
2022-08-30T03:34:38.984Z,19.24
2022-08-30T03:37:11.662Z,19.26
2022-08-30T03:39:45.689Z,19.27
2022-08-30T03:42:20.164Z,19.31
2022-08-30T03:44:54.453Z,19.33
2022-08-30T03:47:26.953Z,19.35
2022-08-30T03:50:00.105Z,19.38
2022-08-30T03:52:32.853Z,19.39
2022-08-30T03:55:06.840Z,19.43
2022-08-30T03:57:43.559Z,19.46
2022-08-30T04:00:17.718Z,19.49
2022-08-30T04:02:50.227Z,19.53
2022-08-30T04:05:22.755Z,19.56
2022-08-30T04:07:55.553Z,19.58
2022-08-30T04:10:28.266Z,19.62
2022-08-30T04:13:02.210Z,19.66
2022-08-30T04:15:34.993Z,19.69
2022-08-30T04:18:07.497Z,19.71
2022-08-30T04:20:40.208Z,19.76
2022-08-30T04:23:13.036Z,19.79
2022-08-30T04:25:46.532Z,19.83
2022-08-30T04:28:20.534Z,19.87
2022-08-30T04:30:53.168Z,19.90
2022-08-30T04:33:25.636Z,19.94
2022-08-30T04:36:04.657Z,19.99
2022-08-30T04:38:39.536Z,20.03
2022-08-30T04:41:16.553Z,20.08
2022-08-30T04:43:50.847Z,20.14
2022-08-30T04:46:23.631Z,20.20
2022-08-30T04:48:56.207Z,20.28
2022-08-30T04:51:28.842Z,20.44
2022-08-30T04:54:01.405Z,20.68
2022-08-30T04:56:34.952Z,20.93
2022-08-30T04:59:08.895Z,21.18
2022-08-30T05:01:45.214Z,21.40
2022-08-30T05:04:18.479Z,21.53
2022-08-30T05:06:51.241Z,21.56
2022-08-30T05:09:24.220Z,21.53
2022-08-30T05:11:56.734Z,21.47
2022-08-30T05:14:30.717Z,21.43
2022-08-30T05:17:03.303Z,21.43
2022-08-30T05:19:37.560Z,21.50
2022-08-30T05:22:10.498Z,21.60
2022-08-30T05:24:43.180Z,21.70
2022-08-30T05:27:15.993Z,21.84
2022-08-30T05:29:49.913Z,22.00
2022-08-30T05:32:22.543Z,22.15
2022-08-30T05:34:55.905Z,22.29
2022-08-30T05:37:28.424Z,22.39
2022-08-30T05:40:01.590Z,22.43
2022-08-30T05:42:37.783Z,22.40
2022-08-30T05:45:13.413Z,22.33
2022-08-30T05:47:47.734Z,22.25
2022-08-30T05:50:20.331Z,22.17
2022-08-30T05:52:53.222Z,22.15
2022-08-30T05:55:25.787Z,22.15
2022-08-30T05:57:58.616Z,22.21
2022-08-30T06:00:32.472Z,22.28
2022-08-30T06:03:05.149Z,22.37
2022-08-30T06:05:38.090Z,22.44
2022-08-30T06:08:10.977Z,22.50
2022-08-30T06:10:43.725Z,22.55
2022-08-30T06:13:16.813Z,22.59
2022-08-30T06:15:52.807Z,22.64
2022-08-30T06:18:28.378Z,22.70
2022-08-30T06:21:01.341Z,22.76
2022-08-30T06:23:34.078Z,22.86
2022-08-30T06:26:07.789Z,22.96
2022-08-30T06:28:40.413Z,23.11
2022-08-30T06:31:16.463Z,23.24
2022-08-30T06:33:49.373Z,23.40
2022-08-30T06:36:24.734Z,23.52
2022-08-30T06:38:58.747Z,23.64
2022-08-30T06:41:33.244Z,23.76
2022-08-30T06:44:06.665Z,23.88
2022-08-30T06:46:40.750Z,23.96
2022-08-30T06:49:13.397Z,24.02
2022-08-30T06:51:46.049Z,24.08
2022-08-30T06:54:18.698Z,24.13
2022-08-30T06:56:59.109Z,24.13
2022-08-30T06:59:32.532Z,24.09
2022-08-30T07:02:07.781Z,24.04
2022-08-30T07:04:41.125Z,23.96
2022-08-30T07:07:13.589Z,23.87
2022-08-30T07:09:46.362Z,23.82
2022-08-30T07:12:18.972Z,23.78
2022-08-30T07:14:51.606Z,23.80
2022-08-30T07:17:44.060Z,23.86
2022-08-30T07:20:16.629Z,23.93
2022-08-30T07:22:49.330Z,24.00
2022-08-30T07:25:23.103Z,24.06
2022-08-30T07:27:57.276Z,24.12
2022-08-30T07:30:29.937Z,24.16
2022-08-30T07:33:04.177Z,24.21
2022-08-30T07:35:37.490Z,24.26
2022-08-30T07:38:13.281Z,24.29
2022-08-30T07:40:45.891Z,24.32
2022-08-30T07:43:19.050Z,24.37
2022-08-30T07:45:51.745Z,24.39
2022-08-30T07:48:26.201Z,24.43
2022-08-30T07:51:03.097Z,24.45
2022-08-30T07:53:37.682Z,24.47
2022-08-30T07:56:10.548Z,24.49
2022-08-30T07:58:43.429Z,24.53
2022-08-30T08:01:16.917Z,24.55
2022-08-30T08:03:51.672Z,24.56
2022-08-30T08:06:25.000Z,24.56
2022-08-30T08:09:02.377Z,24.58
2022-08-30T08:11:36.056Z,24.59
2022-08-30T08:14:09.805Z,24.60
2022-08-30T08:16:44.913Z,24.63
2022-08-30T08:19:19.801Z,24.62
2022-08-30T08:22:19.423Z,24.62
2022-08-30T08:24:49.962Z,24.64
2022-08-30T08:27:24.814Z,24.64
2022-08-30T08:29:57.361Z,24.66
2022-08-30T08:32:29.910Z,24.70
2022-08-30T08:35:04.754Z,24.72
2022-08-30T08:37:37.598Z,24.75
2022-08-30T08:40:15.280Z,24.78
2022-08-30T08:43:01.074Z,24.80
2022-08-30T08:45:43.420Z,24.81
2022-08-30T08:48:32.036Z,24.83
2022-08-30T08:51:40.198Z,24.85
2022-08-30T08:54:16.618Z,24.86
2022-08-30T08:56:49.298Z,24.89
2022-08-30T08:59:22.019Z,24.90
2022-08-30T09:01:58.162Z,24.93
2022-08-30T09:04:35.764Z,24.95
2022-08-30T09:07:21.230Z,24.98
2022-08-30T09:09:54.302Z,25.01
2022-08-30T09:12:27.755Z,25.04
2022-08-30T09:15:07.675Z,25.07
2022-08-30T09:17:54.375Z,25.09
2022-08-30T09:20:31.636Z,25.10
2022-08-30T09:23:32.602Z,25.11
2022-08-30T09:26:09.276Z,25.11
2022-08-30T09:28:49.428Z,25.14
2022-08-30T09:31:24.687Z,25.15
2022-08-30T09:34:04.159Z,25.17
2022-08-30T09:36:44.161Z,25.18
2022-08-30T09:39:20.446Z,25.22
2022-08-30T09:41:54.848Z,25.26
2022-08-30T09:44:28.398Z,25.28
2022-08-30T09:47:01.736Z,25.37
2022-08-30T09:49:36.403Z,25.42
2022-08-30T09:52:34.879Z,25.47
2022-08-30T09:55:21.393Z,25.47
2022-08-30T09:58:00.986Z,25.51
2022-08-30T10:00:39.205Z,25.50
2022-08-30T10:06:27.917Z,25.47
2022-08-30T10:09:11.834Z,25.48
2022-08-30T10:11:57.645Z,25.50
2022-08-30T10:14:56.701Z,25.53
2022-08-30T10:17:42.392Z,25.54
2022-08-30T10:20:23.908Z,25.54
2022-08-30T10:23:06.526Z,25.56
2022-08-30T10:25:44.153Z,25.57
2022-08-30T10:28:23.276Z,25.60
2022-08-30T10:31:00.519Z,25.64
2022-08-30T10:33:38.187Z,25.68
2022-08-30T10:36:13.533Z,25.66
2022-08-30T10:38:50.335Z,25.66
2022-08-30T10:41:29.116Z,25.63
2022-08-30T10:44:08.428Z,25.62
2022-08-30T10:46:57.042Z,25.58
2022-08-30T10:49:35.302Z,25.58
2022-08-30T10:52:25.548Z,25.65
2022-08-30T10:55:03.070Z,25.70
2022-08-30T10:57:36.003Z,25.77
2022-08-30T11:00:13.867Z,25.84
2022-08-30T11:03:21.554Z,25.89
2022-08-30T11:06:16.548Z,25.95
2022-08-30T11:09:10.459Z,25.98
2022-08-30T11:12:00.823Z,26.03
2022-08-30T11:14:34.592Z,26.04
2022-08-30T11:17:27.298Z,26.06
2022-08-30T11:20:02.697Z,26.05
2022-08-30T11:25:57.395Z,26.03
2022-08-30T11:29:04.873Z,26.02
2022-08-30T11:31:41.733Z,25.99
2022-08-30T11:34:55.216Z,25.98
2022-08-30T11:37:43.065Z,25.98
2022-08-30T11:40:46.153Z,25.98
2022-08-30T11:43:51.195Z,25.97
2022-08-30T11:46:38.385Z,25.97
2022-08-30T11:49:47.261Z,25.97
2022-08-30T11:52:43.819Z,25.95
2022-08-30T11:55:45.144Z,25.96
2022-08-30T11:58:26.234Z,25.96
2022-08-30T12:01:51.296Z,25.98
2022-08-30T12:04:37.827Z,25.98
2022-08-30T12:07:11.604Z,25.98
2022-08-30T12:10:02.388Z,25.99
2022-08-30T12:13:03.079Z,25.98
2022-08-30T12:15:57.228Z,25.99
2022-08-30T12:18:45.547Z,25.98
2022-08-30T12:21:29.149Z,25.98
2022-08-30T12:24:15.648Z,25.97
2022-08-30T12:26:50.279Z,25.96
2022-08-30T12:29:25.197Z,25.95
2022-08-30T12:32:03.182Z,25.95
2022-08-30T12:34:49.604Z,25.94
2022-08-30T12:37:26.014Z,25.95
2022-08-30T12:40:06.096Z,25.93
2022-08-30T12:42:41.550Z,25.93
2022-08-30T12:45:16.677Z,25.94
2022-08-30T12:47:54.017Z,25.95
2022-08-30T12:50:31.440Z,25.97
2022-08-30T12:53:13.555Z,25.98
2022-08-30T12:55:53.217Z,25.95
2022-08-30T12:58:41.071Z,26.02
2022-08-30T13:01:29.786Z,26.04
2022-08-30T13:04:13.940Z,26.05
2022-08-30T13:06:50.581Z,26.05
2022-08-30T13:09:32.382Z,26.04
2022-08-30T13:12:08.341Z,26.04
2022-08-30T13:14:43.491Z,26.06
2022-08-30T13:17:27.626Z,26.09
2022-08-30T13:20:05.867Z,26.08
2022-08-30T13:22:40.706Z,26.08
2022-08-30T13:25:14.987Z,26.08
2022-08-30T13:27:47.513Z,26.07
2022-08-30T13:30:20.697Z,26.05
2022-08-30T13:32:53.385Z,26.05
2022-08-30T13:35:25.962Z,26.01
2022-08-30T13:38:01.518Z,26.05
2022-08-30T13:40:36.124Z,26.07
2022-08-30T13:43:08.743Z,26.10
2022-08-30T13:45:41.961Z,26.11
2022-08-30T13:48:17.384Z,26.09
2022-08-30T13:50:57.479Z,26.07
2022-08-30T13:56:25.058Z,25.99
2022-08-30T13:58:58.090Z,25.93
2022-08-30T14:02:07.689Z,25.93
2022-08-30T14:04:25.191Z,25.91
2022-08-30T14:07:19.970Z,25.91
2022-08-30T14:09:52.066Z,25.94
2022-08-30T14:15:19.920Z,26.01
2022-08-30T14:17:53.017Z,26.06
2022-08-30T14:20:25.885Z,26.08
2022-08-30T14:22:59.766Z,26.07
2022-08-30T14:25:33.122Z,26.06
2022-08-30T14:28:07.451Z,26.02
2022-08-30T14:30:42.236Z,25.99
2022-08-30T14:33:15.926Z,25.96
2022-08-30T14:35:48.700Z,25.92
2022-08-30T14:38:21.954Z,25.90
2022-08-30T14:40:54.952Z,25.87
2022-08-30T14:43:29.090Z,25.85
2022-08-30T14:46:02.169Z,25.80
2022-08-30T14:48:36.242Z,25.77
2022-08-30T14:51:13.521Z,25.71
2022-08-30T14:53:47.941Z,25.70
2022-08-30T14:56:22.451Z,25.66
2022-08-30T14:59:00.764Z,25.64
2022-08-30T15:01:37.100Z,25.62
2022-08-30T15:04:11.248Z,25.59
2022-08-30T15:06:48.549Z,25.57
2022-08-30T15:09:23.907Z,25.54
2022-08-30T15:11:58.788Z,25.43
2022-08-30T15:14:33.196Z,25.48
2022-08-30T15:17:05.916Z,25.43
2022-08-30T15:19:39.697Z,25.43
2022-08-30T15:22:12.173Z,25.39
2022-08-30T15:24:48.783Z,25.35
2022-08-30T15:27:24.051Z,25.35
2022-08-30T15:29:57.992Z,25.33
2022-08-30T15:32:32.101Z,25.30
2022-08-30T15:35:05.771Z,25.28
2022-08-30T15:37:40.550Z,25.26
2022-08-30T15:40:13.309Z,25.28
2022-08-30T15:42:46.147Z,25.27
2022-08-30T15:45:20.246Z,25.25
2022-08-30T15:47:52.836Z,25.27
2022-08-30T15:50:26.101Z,25.25
2022-08-30T15:52:58.551Z,25.23
2022-08-30T15:55:31.140Z,25.19
2022-08-30T15:58:04.492Z,25.16
2022-08-30T16:00:44.860Z,25.12
2022-08-30T16:03:17.918Z,25.07
2022-08-30T16:05:52.608Z,25.04
2022-08-30T16:08:25.776Z,25.00
2022-08-30T16:10:58.374Z,24.98
2022-08-30T16:13:31.400Z,24.94
2022-08-30T16:16:08.805Z,24.91
2022-08-30T16:18:41.456Z,24.87
2022-08-30T16:21:17.001Z,24.80
2022-08-30T16:23:49.634Z,24.77
2022-08-30T16:26:22.710Z,24.74
2022-08-30T16:28:56.073Z,24.72
2022-08-30T16:31:31.710Z,24.69
2022-08-30T16:34:05.499Z,24.66
2022-08-30T16:36:39.939Z,24.65
2022-08-30T16:39:13.618Z,24.62
2022-08-30T16:41:46.732Z,24.61
2022-08-30T16:44:20.801Z,24.62
2022-08-30T16:46:55.110Z,24.61
2022-08-30T16:49:28.003Z,24.61
2022-08-30T16:52:00.944Z,24.61
2022-08-30T16:54:33.765Z,24.61
2022-08-30T16:57:06.625Z,24.59
2022-08-30T16:59:39.615Z,24.62
2022-08-30T17:02:13.754Z,24.61
2022-08-30T17:04:49.793Z,24.61
2022-08-30T17:07:25.118Z,24.61
2022-08-30T17:09:58.269Z,24.60
2022-08-30T17:12:31.322Z,24.59
2022-08-30T17:15:05.587Z,24.59
2022-08-30T17:17:43.078Z,24.54
2022-08-30T17:20:16.556Z,24.55
2022-08-30T17:22:49.263Z,24.55
2022-08-30T17:25:21.938Z,24.52
2022-08-30T17:27:54.603Z,24.51
2022-08-30T17:30:27.526Z,24.48
2022-08-30T17:33:01.599Z,24.46
2022-08-30T17:35:34.528Z,24.42
2022-08-30T17:38:08.304Z,24.39
2022-08-30T17:40:43.875Z,24.36
2022-08-30T17:43:16.483Z,24.28
2022-08-30T17:45:48.995Z,24.27
2022-08-30T17:48:23.197Z,24.22
2022-08-30T17:50:56.238Z,24.19
2022-08-30T17:53:29.718Z,24.12
2022-08-30T17:56:03.448Z,24.11
2022-08-30T17:58:36.404Z,24.08
2022-08-30T18:01:12.020Z,24.04
2022-08-30T18:03:46.422Z,24.01
2022-08-30T18:06:19.479Z,23.94
2022-08-30T18:08:53.085Z,23.92
2022-08-30T18:11:26.164Z,23.88
2022-08-30T18:13:58.982Z,23.83
2022-08-30T18:16:32.744Z,23.81
2022-08-30T18:19:10.790Z,23.81
2022-08-30T18:21:43.839Z,23.79
2022-08-30T18:24:16.878Z,23.76
2022-08-30T18:26:49.899Z,23.73
2022-08-30T18:29:28.957Z,23.71
2022-08-30T18:32:04.362Z,23.71
2022-08-30T18:34:42.386Z,23.67
2022-08-30T18:37:16.925Z,23.65
2022-08-30T18:39:50.347Z,23.62
2022-08-30T18:42:23.581Z,23.58
2022-08-30T18:44:56.220Z,23.55
2022-08-30T18:47:30.186Z,23.53
2022-08-30T18:50:05.314Z,23.45
2022-08-30T18:52:38.730Z,23.43
2022-08-30T18:55:12.926Z,23.41
2022-08-30T18:57:45.733Z,23.38
2022-08-30T19:00:19.984Z,23.36
2022-08-30T19:02:53.253Z,23.34
2022-08-30T19:05:28.989Z,23.32
2022-08-30T19:08:03.264Z,23.29
2022-08-30T19:10:36.567Z,23.28
2022-08-30T19:13:10.952Z,23.28
2022-08-30T19:15:43.658Z,23.26
2022-08-30T19:18:18.879Z,23.25
2022-08-30T19:20:53.320Z,23.23
2022-08-30T19:23:33.060Z,23.19
2022-08-30T19:26:07.067Z,23.18
2022-08-30T19:28:40.462Z,23.17
2022-08-30T19:31:13.167Z,23.14
2022-08-30T19:33:45.913Z,23.08
2022-08-30T19:36:20.439Z,23.06
2022-08-30T19:38:53.116Z,23.01
2022-08-30T19:41:29.811Z,22.96
2022-08-30T19:44:03.436Z,22.84
2022-08-30T19:46:37.186Z,22.88
2022-08-30T19:49:11.297Z,22.84
2022-08-30T19:51:47.043Z,22.78
2022-08-30T19:54:20.004Z,22.73
2022-08-30T19:56:52.599Z,22.68
2022-08-30T19:59:25.093Z,22.64
2022-08-30T20:01:57.887Z,22.59
2022-08-30T20:04:31.765Z,22.55
2022-08-30T20:07:06.186Z,22.52
2022-08-30T20:09:40.441Z,22.48
2022-08-30T20:12:13.825Z,22.44
2022-08-30T20:14:46.586Z,22.42
2022-08-30T20:17:19.165Z,22.38
2022-08-30T20:19:51.694Z,22.36
2022-08-30T20:22:26.749Z,22.35
2022-08-30T20:24:59.410Z,22.32
2022-08-30T20:27:32.190Z,22.28
2022-08-30T20:30:05.505Z,22.25
2022-08-30T20:32:38.783Z,22.20
2022-08-30T20:35:11.941Z,22.17
2022-08-30T20:37:46.586Z,22.14
2022-08-30T20:40:20.833Z,22.13
2022-08-30T20:42:53.854Z,22.10
2022-08-30T20:45:28.747Z,22.09
2022-08-30T20:48:05.873Z,22.07
2022-08-30T20:50:38.789Z,22.05
2022-08-30T20:53:13.379Z,22.04
2022-08-30T20:55:47.547Z,21.99
2022-08-30T20:58:20.178Z,22.01
2022-08-30T21:00:53.545Z,22.00
2022-08-30T21:03:27.899Z,21.99
2022-08-30T21:06:01.014Z,21.97
2022-08-30T21:08:35.599Z,21.96
2022-08-30T21:11:08.427Z,21.95
2022-08-30T21:13:40.970Z,21.93
2022-08-30T21:16:13.746Z,21.92
2022-08-30T21:18:46.304Z,21.89
2022-08-30T21:21:21.583Z,21.88
2022-08-30T21:23:59.495Z,21.85
2022-08-30T21:26:32.359Z,21.81
2022-08-30T21:29:05.458Z,21.78
2022-08-30T21:31:39.040Z,21.77
2022-08-30T21:34:17.531Z,21.75
2022-08-30T21:36:51.174Z,21.71
2022-08-30T21:39:27.557Z,21.67
2022-08-30T21:42:00.043Z,21.64
2022-08-30T21:44:32.566Z,21.59
2022-08-30T21:47:06.223Z,21.57
2022-08-30T21:49:39.091Z,21.54
2022-08-30T21:52:11.594Z,21.52
2022-08-30T21:54:45.938Z,21.49
2022-08-30T21:57:18.505Z,21.46
2022-08-30T21:59:51.117Z,21.43
2022-08-30T22:02:23.723Z,21.39
2022-08-30T22:04:56.496Z,21.35
2022-08-30T22:07:29.175Z,21.30
2022-08-30T22:10:04.663Z,21.16
2022-08-30T22:12:38.671Z,21.21
2022-08-30T22:15:14.351Z,21.21
2022-08-30T22:17:47.189Z,21.16
2022-08-30T22:20:19.856Z,21.14
2022-08-30T22:22:53.675Z,21.09
2022-08-30T22:25:28.001Z,21.06
2022-08-30T22:28:00.603Z,20.99
2022-08-30T22:30:37.173Z,21.00
2022-08-30T22:33:09.737Z,20.97
2022-08-30T22:35:43.685Z,20.93
2022-08-30T22:38:16.351Z,20.93
2022-08-30T22:40:54.268Z,20.90
2022-08-30T22:43:27.291Z,20.89
2022-08-30T22:46:00.522Z,20.87
2022-08-30T22:48:33.542Z,20.83
2022-08-30T22:51:07.125Z,20.82
2022-08-30T22:53:39.852Z,20.81
2022-08-30T22:56:16.941Z,20.78
2022-08-30T22:58:50.092Z,20.72
2022-08-30T23:01:24.983Z,20.74
2022-08-30T23:03:58.704Z,20.71
2022-08-30T23:06:31.465Z,20.67
2022-08-30T23:09:04.541Z,20.64
2022-08-30T23:11:38.869Z,20.61
2022-08-30T23:14:11.357Z,20.59
2022-08-30T23:16:44.211Z,20.58
2022-08-30T23:19:17.099Z,20.55
2022-08-30T23:21:49.702Z,20.53
2022-08-30T23:24:40.905Z,20.52
2022-08-30T23:27:39.006Z,20.49
2022-08-30T23:30:31.330Z,20.44
2022-08-30T23:33:22.622Z,20.41
2022-08-30T23:36:14.060Z,20.38
2022-08-30T23:39:05.989Z,20.34
2022-08-30T23:41:57.262Z,20.32
2022-08-30T23:44:49.971Z,20.31
2022-08-30T23:47:42.927Z,20.25
2022-08-30T23:50:34.561Z,20.26
2022-08-30T23:53:25.770Z,20.22
2022-08-30T23:56:17.504Z,20.20
2022-08-30T23:59:08.446Z,20.17
